ADDS METAR Data INFO
IDs: Format: Raw Decoded Include TAF

Data at: 0319 UTC 20 Jul 2018

KFMN 200253Z 27011KT 10SM CLR 30/07 A3007 RMK AO2 SLP106 T03000072 53005
KFMN 200153Z 28014KT 10SM CLR 33/04 A3005 RMK AO2 SLP101 T03280044
KFMN 200053Z 28014KT 10SM CLR 35/03 A3004 RMK AO2 SLP097 T03500033
KFMN 192353Z 25013KT 10SM CLR 36/03 A3005 RMK AO2 SLP098 T03560033 10367 20306 56017
KFMN 192253Z 25010KT 10SM CLR 36/04 A3006 RMK AO2 SLP102 T03560039
KFMN 192153Z 23010KT 10SM CLR 36/04 A3008 RMK AO2 SLP109 T03560044
KFMN 192053Z 25007KT 200V270 10SM CLR 36/07 A3011 RMK AO2 SLP116 T03610067 58025
KFMN 191953Z 00000KT 10SM CLR 34/08 A3014 RMK AO2 SLP125 T03440083
KFMN 191853Z 26007KT 10SM CLR 34/10 A3018 RMK AO2 SLP139 T03390100
KFMN 191753Z 20004KT 10SM CLR 31/10 A3020 RMK AO2 SLP147 T03060100 10311 20183 58006
KFMN 191653Z 15004KT 10SM CLR 28/10 A3021 RMK AO2 SLP155 T02780100
KFMN 191553Z 09006KT 10SM CLR 26/11 A3022 RMK AO2 SLP158 T02560106
KFMN 191453Z 10005KT 10SM CLR 23/11 A3022 RMK AO2 SLP159 T02280106 51014
KFMN 191353Z 09008KT 10SM CLR 21/11 A3021 RMK AO2 SLP158 T02060106
KFMN 191253Z 07006KT 10SM CLR 19/11 A3019 RMK AO2 SLP151 T01890106
KFMN 191153Z 09006KT 10SM CLR 19/11 A3017 RMK AO2 SLP144 T01940111 10250 20194 53005
KFMN 191053Z AUTO 07006KT 10SM CLR 20/10 A3016 RMK AO2 SLP138 T02000100
KFMN 190953Z AUTO 05004KT 10SM CLR 20/11 A3016 RMK AO2 SLP138 T02000106
KFMN 190853Z AUTO 08006KT 10SM CLR 21/09 A3015 RMK AO2 SLP134 T02110089 58001
KFMN 190753Z AUTO 00000KT 10SM CLR 23/07 A3016 RMK AO2 SLP135 T02280072
KFMN 190653Z AUTO 08003KT 10SM CLR 22/07 A3016 RMK AO2 SLP141 T02220067 403440167
KFMN 190553Z AUTO 03003KT 10SM CLR 26/06 A3016 RMK AO2 SLP137 T02560061 10339 20250 51006
KFMN 190453Z AUTO 03006KT 10SM FEW120 26/06 A3016 RMK AO2 SLP139 T02610056
KFMN 190353Z 34004KT 10SM CLR 28/06 A3014 RMK AO2 SLP134 T02780056
KFMN 190253Z 36005KT 10SM CLR 30/06 A3014 RMK AO2 SLP134 T03000061 53007
KFMN 190153Z 34011KT 10SM CLR 32/08 A3013 RMK AO2 SLP130 T03170078
KFMN 190053Z 34008KT 10SM BKN110 33/07 A3011 RMK AO2 SLP124 T03330072
KFMN 182353Z 25016KT 10SM FEW110 33/08 A3011 RMK AO2 LTG DSNT N AND NE SLP127 T03280083 10344 20283 56016
KFMN 182253Z 25012KT 10SM SCT110 33/08 A3013 RMK AO2 LTG DSNT NE SLP130 T03330083
KFMN 182153Z 24009KT 10SM FEW100 33/08 A3015 RMK AO2 SLP137 T03280078
KFMN 182053Z 22010G16KT 10SM CLR 34/09 A3017 RMK AO2 SLP141 T03390089 58027
KFMN 181953Z 27008KT 230V340 10SM CLR 32/09 A3021 RMK AO2 SLP155 T03220094
KFMN 181853Z VRB04KT 10SM CLR 30/10 A3024 RMK AO2 SLP168 T03000100
KFMN 181753Z 22004KT 10SM CLR 28/11 A3026 RMK AO2 SLP178 T02830111 10289 20167 58010
KFMN 181653Z 00000KT 10SM CLR 26/12 A3028 RMK AO2 SLP192 T02610122
KFMN 181553Z 13006KT 10SM CLR 24/13 A3029 RMK AO2 SLP191 T02390133